createdAt,value
2018-05-09T00:00:45.204Z,85.94
2018-05-09T00:01:45.770Z,86.61
2018-05-09T00:02:46.334Z,87.56
2018-05-09T00:03:46.881Z,87.47
2018-05-09T00:04:47.428Z,87.03
2018-05-09T00:05:47.981Z,87.23
2018-05-09T00:06:48.534Z,87.95
2018-05-09T00:07:49.082Z,87.56
2018-05-09T00:08:49.632Z,87.47
2018-05-09T00:09:50.184Z,87.85
2018-05-09T00:10:50.727Z,88.33
2018-05-09T00:11:51.330Z,89.19
2018-05-09T00:12:51.828Z,89.76
2018-05-09T00:13:52.376Z,90.24
2018-05-09T00:14:52.927Z,89.62
2018-05-09T00:15:53.477Z,90.39
2018-05-09T00:16:54.025Z,90.77
2018-05-09T00:17:54.573Z,90.77
2018-05-09T00:18:55.120Z,90.87
2018-05-09T00:19:55.673Z,91.44
2018-05-09T00:20:56.219Z,91.63
2018-05-09T00:21:56.766Z,90.67
2018-05-09T00:22:57.321Z,90.39
2018-05-09T00:23:57.869Z,90.67
2018-05-09T00:24:58.415Z,90.58
2018-05-09T00:25:58.961Z,90.67
2018-05-09T00:26:59.511Z,90.87
2018-05-09T00:28:00.055Z,90.96
2018-05-09T00:29:00.608Z,91.35
2018-05-09T00:30:01.159Z,91.53
2018-05-09T00:31:01.709Z,91.63
2018-05-09T00:32:02.260Z,91.97
2018-05-09T00:33:02.805Z,92.21
2018-05-09T00:34:03.353Z,92.11
2018-05-09T00:35:03.908Z,92.45
2018-05-09T00:36:04.455Z,92.40
2018-05-09T00:37:05.004Z,91.92
2018-05-09T00:38:05.555Z,91.39
2018-05-09T00:39:06.102Z,91.83
2018-05-09T00:40:06.656Z,91.30
2018-05-09T00:41:07.203Z,91.25
2018-05-09T00:42:07.750Z,91.30
2018-05-09T00:43:08.300Z,92.93
2018-05-09T00:44:08.851Z,93.21
2018-05-09T00:45:09.401Z,93.31
2018-05-09T00:46:09.950Z,93.12
2018-05-09T00:47:10.494Z,93.02
2018-05-09T00:48:11.042Z,93.12
2018-05-09T00:49:11.587Z,93.50
2018-05-09T00:50:12.227Z,93.21
2018-05-09T00:51:12.686Z,93.12
2018-05-09T00:52:13.235Z,93.02
2018-05-09T00:53:13.776Z,92.74
2018-05-09T00:54:14.326Z,92.54
2018-05-09T00:55:14.868Z,92.74
2018-05-09T00:56:15.432Z,93.79
2018-05-09T00:57:15.964Z,93.88
2018-05-09T00:58:16.513Z,94.93
2018-05-09T00:59:17.063Z,95.41
2018-05-09T01:00:17.614Z,95.32
2018-05-09T01:01:18.161Z,95.61
2018-05-09T01:02:18.712Z,95.70
2018-05-09T01:03:19.252Z,95.22
2018-05-09T01:04:19.800Z,95.41
2018-05-09T01:05:20.350Z,95.70
2018-05-09T01:06:20.899Z,95.70
2018-05-09T01:07:21.449Z,94.74
2018-05-09T01:08:21.998Z,95.03
2018-05-09T01:09:22.552Z,94.84
2018-05-09T01:10:23.104Z,95.41
2018-05-09T01:11:23.648Z,95.36
2018-05-09T01:12:24.196Z,95.70
2018-05-09T01:13:24.744Z,96.08
2018-05-09T01:14:25.290Z,95.79
2018-05-09T01:15:25.839Z,96.37
2018-05-09T01:16:26.392Z,96.03
2018-05-09T01:17:26.940Z,95.46
2018-05-09T01:18:27.484Z,95.46
2018-05-09T01:19:28.034Z,94.79
2018-05-09T01:20:28.589Z,94.02
2018-05-09T01:21:29.133Z,94.02
2018-05-09T01:22:29.684Z,93.55
2018-05-09T01:23:30.235Z,92.97
2018-05-09T01:24:30.784Z,92.88
2018-05-09T01:25:31.332Z,92.59
2018-05-09T01:26:31.878Z,93.45
2018-05-09T01:27:32.430Z,93.55
2018-05-09T01:28:32.983Z,93.84
2018-05-09T01:29:33.535Z,93.84
2018-05-09T01:30:34.080Z,93.93
2018-05-09T01:31:34.631Z,93.74
2018-05-09T01:32:35.179Z,93.45
2018-05-09T01:33:35.725Z,93.26
2018-05-09T01:34:36.277Z,93.07
2018-05-09T01:35:36.829Z,93.36
2018-05-09T01:36:37.382Z,93.16
2018-05-09T01:37:37.934Z,93.74
2018-05-09T01:38:38.490Z,94.22
2018-05-09T01:39:39.051Z,94.98
2018-05-09T01:40:39.590Z,94.79
2018-05-09T01:41:40.141Z,94.98
2018-05-09T01:42:40.696Z,94.17
2018-05-09T01:43:41.242Z,94.41
2018-05-09T01:44:41.794Z,94.46
2018-05-09T01:45:42.333Z,93.41
2018-05-09T01:46:42.888Z,94.17
2018-05-09T01:47:43.436Z,93.50
2018-05-09T01:48:43.986Z,94.55
2018-05-09T01:49:44.613Z,93.70
2018-05-09T01:50:45.142Z,93.79
2018-05-09T01:51:45.687Z,94.17
2018-05-09T01:52:46.233Z,94.93
2018-05-09T01:53:46.787Z,95.22
2018-05-09T01:54:47.331Z,95.41
2018-05-09T01:55:47.891Z,95.61
2018-05-09T01:56:48.436Z,95.51
2018-05-09T01:57:48.979Z,96.17
2018-05-09T01:58:49.529Z,96.56
2018-05-09T01:59:50.080Z,97.13
2018-05-09T02:00:50.628Z,96.08
2018-05-09T02:01:51.179Z,96.27
2018-05-09T02:02:51.733Z,96.27
2018-05-09T02:03:52.270Z,96.37
2018-05-09T02:04:52.817Z,96.94
2018-05-09T02:05:53.366Z,96.08
2018-05-09T02:06:53.915Z,96.27
2018-05-09T02:07:54.462Z,96.08
2018-05-09T02:08:55.012Z,95.70
2018-05-09T02:09:55.556Z,95.61
2018-05-09T02:10:56.104Z,96.08
2018-05-09T02:11:56.654Z,96.56
2018-05-09T02:12:57.203Z,97.03
2018-05-09T02:13:57.755Z,97.13
2018-05-09T02:14:58.304Z,96.66
2018-05-09T02:15:58.849Z,95.98
2018-05-09T02:16:59.402Z,95.98
2018-05-09T02:17:59.947Z,96.27
2018-05-09T02:19:00.498Z,95.61
2018-05-09T02:20:01.049Z,96.27
2018-05-09T02:21:01.593Z,95.89
2018-05-09T02:22:02.142Z,95.41
2018-05-09T02:23:02.686Z,96.17
2018-05-09T02:24:03.238Z,96.51
2018-05-09T02:25:03.785Z,96.80
2018-05-09T02:26:04.334Z,96.94
2018-05-09T02:27:04.876Z,96.98
2018-05-09T02:28:05.423Z,97.47
2018-05-09T02:29:05.967Z,97.94
2018-05-09T02:30:06.517Z,99.37
2018-05-09T02:31:07.105Z,99.99
2018-05-09T02:32:07.612Z,99.99
2018-05-09T02:33:08.163Z,99.99
2018-05-09T02:34:08.709Z,99.99
2018-05-09T02:35:09.262Z,99.99
2018-05-09T02:36:09.806Z,99.99
2018-05-09T02:37:10.357Z,99.99
2018-05-09T02:38:10.908Z,99.99
2018-05-09T02:39:11.457Z,99.99
2018-05-09T02:40:12.009Z,99.99
2018-05-09T02:41:12.562Z,99.99
2018-05-09T02:42:13.113Z,99.99
2018-05-09T02:43:13.661Z,99.99
2018-05-09T02:44:14.204Z,99.99
2018-05-09T02:45:14.755Z,99.99
2018-05-09T02:46:15.352Z,99.99
2018-05-09T02:47:15.909Z,99.99
2018-05-09T02:48:16.450Z,99.99
2018-05-09T02:49:17.005Z,99.99
2018-05-09T02:50:17.554Z,99.99
2018-05-09T02:51:18.102Z,99.99
2018-05-09T02:52:18.707Z,99.99
2018-05-09T02:53:19.252Z,99.99
2018-05-09T02:54:19.800Z,99.99
2018-05-09T02:55:20.349Z,99.99
2018-05-09T02:56:20.895Z,99.99
2018-05-09T02:57:21.439Z,99.99
2018-05-09T02:58:21.987Z,99.99
2018-05-09T02:59:22.536Z,99.99
2018-05-09T03:00:23.081Z,99.99
2018-05-09T03:01:23.628Z,99.99
2018-05-09T03:02:24.173Z,99.99
2018-05-09T03:03:24.721Z,99.99
2018-05-09T03:04:25.269Z,99.99
2018-05-09T03:05:25.819Z,99.99
2018-05-09T03:06:26.368Z,99.99
2018-05-09T03:07:26.926Z,99.99
2018-05-09T03:08:27.470Z,99.99
2018-05-09T03:09:28.008Z,99.99
2018-05-09T03:10:28.560Z,99.99
2018-05-09T03:11:29.109Z,99.99
2018-05-09T03:12:29.652Z,99.99
2018-05-09T03:13:30.199Z,99.99
2018-05-09T03:14:30.749Z,99.99
2018-05-09T03:15:31.292Z,99.99
2018-05-09T03:16:31.842Z,99.99
2018-05-09T03:17:32.387Z,99.99
2018-05-09T03:18:32.936Z,99.99
2018-05-09T03:19:33.487Z,99.99
2018-05-09T03:20:34.034Z,99.99
2018-05-09T03:21:34.581Z,99.99
2018-05-09T03:22:35.127Z,99.99
2018-05-09T03:23:35.671Z,99.99
2018-05-09T03:24:36.220Z,99.99
2018-05-09T03:25:36.764Z,99.99
2018-05-09T03:26:37.314Z,99.99
2018-05-09T03:27:37.859Z,99.99
2018-05-09T03:28:38.403Z,99.99
2018-05-09T03:29:38.965Z,99.99
2018-05-09T03:30:39.495Z,99.99
2018-05-09T03:31:40.050Z,99.99
2018-05-09T03:32:40.594Z,99.99
2018-05-09T03:33:41.139Z,99.99
2018-05-09T03:34:41.688Z,99.99
2018-05-09T03:35:42.239Z,99.99
2018-05-09T03:36:42.792Z,99.99
2018-05-09T03:37:43.334Z,99.99
2018-05-09T03:38:43.883Z,99.99
2018-05-09T03:39:44.431Z,99.99
2018-05-09T03:40:44.978Z,99.99
2018-05-09T03:41:45.523Z,99.99
2018-05-09T03:42:46.071Z,99.99
2018-05-09T03:43:46.629Z,99.99
2018-05-09T03:44:47.176Z,99.99
2018-05-09T03:45:47.725Z,99.99
2018-05-09T03:46:48.270Z,99.99
2018-05-09T03:47:48.818Z,99.99
2018-05-09T03:48:49.369Z,99.99
2018-05-09T03:49:49.917Z,99.99
2018-05-09T03:50:50.462Z,99.99
2018-05-09T03:51:51.013Z,99.99
2018-05-09T03:52:51.560Z,99.99
2018-05-09T03:53:52.116Z,99.99
2018-05-09T03:54:52.667Z,99.99
2018-05-09T03:55:53.218Z,99.99
2018-05-09T03:56:53.771Z,99.99
2018-05-09T03:57:54.318Z,99.99
2018-05-09T03:58:54.871Z,99.99
2018-05-09T03:59:55.422Z,99.99
2018-05-09T04:00:55.972Z,99.99
2018-05-09T04:01:56.517Z,99.99
2018-05-09T04:02:57.072Z,99.99
2018-05-09T04:03:57.627Z,99.99
2018-05-09T04:04:58.175Z,99.99
2018-05-09T04:05:58.723Z,99.99
2018-05-09T04:06:59.285Z,99.99
2018-05-09T04:07:59.837Z,99.99
2018-05-09T04:09:00.387Z,99.99
2018-05-09T04:10:00.940Z,99.99
2018-05-09T04:11:01.488Z,99.99
2018-05-09T04:12:02.044Z,99.99
2018-05-09T04:13:02.597Z,99.99
2018-05-09T04:14:03.153Z,99.99
2018-05-09T04:15:03.704Z,99.99
2018-05-09T04:16:04.253Z,99.99
2018-05-09T04:17:04.807Z,99.99
2018-05-09T04:18:05.358Z,99.99
2018-05-09T04:19:05.909Z,99.99
2018-05-09T04:20:06.463Z,99.99
2018-05-09T04:21:07.012Z,99.99
2018-05-09T04:22:07.566Z,99.99
2018-05-09T04:23:08.119Z,99.99
2018-05-09T04:24:08.672Z,99.99
2018-05-09T04:25:09.221Z,99.99
2018-05-09T04:26:09.769Z,99.99
2018-05-09T04:27:10.324Z,99.99
2018-05-09T04:28:10.884Z,99.99
2018-05-09T04:29:11.433Z,99.99
2018-05-09T04:30:11.984Z,99.99
2018-05-09T04:31:12.532Z,99.99
2018-05-09T04:32:13.083Z,99.99
2018-05-09T04:33:13.633Z,99.99
2018-05-09T04:34:14.185Z,99.99
2018-05-09T04:35:14.742Z,99.99
2018-05-09T04:36:15.321Z,99.99
2018-05-09T04:37:15.864Z,99.99
2018-05-09T04:38:16.409Z,99.99
2018-05-09T04:39:16.957Z,99.99
2018-05-09T04:40:17.510Z,99.99
2018-05-09T04:41:18.066Z,99.99
2018-05-09T04:42:18.618Z,99.99
2018-05-09T04:43:19.174Z,99.99
2018-05-09T04:44:19.733Z,99.99
2018-05-09T04:45:20.287Z,99.99
2018-05-09T04:46:20.842Z,99.99
2018-05-09T04:47:21.396Z,99.99
2018-05-09T04:48:21.946Z,97.80
2018-05-09T04:49:22.507Z,95.75
2018-05-09T04:50:23.064Z,93.16
2018-05-09T04:51:23.616Z,90.91
2018-05-09T04:52:24.173Z,90.09
2018-05-09T04:53:24.733Z,88.99
2018-05-09T04:54:25.284Z,88.51
2018-05-09T04:55:25.861Z,87.46
2018-05-09T04:56:26.400Z,87.55
2018-05-09T04:57:26.950Z,87.65
2018-05-09T04:58:27.503Z,87.21
2018-05-09T04:59:28.057Z,86.88
2018-05-09T05:00:28.616Z,85.10
2018-05-09T05:01:29.174Z,83.51
2018-05-09T05:02:29.739Z,81.43
2018-05-09T05:03:30.293Z,79.52
2018-05-09T05:04:30.853Z,78.36
2018-05-09T05:05:31.413Z,77.88
2018-05-09T05:06:31.966Z,77.83
2018-05-09T05:07:32.535Z,77.50
2018-05-09T05:08:33.092Z,77.21
2018-05-09T05:09:33.651Z,77.83
2018-05-09T05:10:34.286Z,77.83
2018-05-09T05:11:34.771Z,76.90
2018-05-09T05:12:35.337Z,75.84
2018-05-09T05:13:35.897Z,75.49
2018-05-09T05:14:36.454Z,74.82
2018-05-09T05:15:37.024Z,74.19
2018-05-09T05:16:37.583Z,72.55
2018-05-09T05:17:38.146Z,72.07
2018-05-09T05:18:38.709Z,71.78
2018-05-09T05:19:39.267Z,71.40
2018-05-09T05:20:39.825Z,71.14
2018-05-09T05:21:40.391Z,70.82
2018-05-09T05:22:40.961Z,70.88
2018-05-09T05:23:41.522Z,71.08
2018-05-09T05:24:42.081Z,72.34
2018-05-09T05:25:42.648Z,74.27
2018-05-09T05:26:43.211Z,75.71
2018-05-09T05:27:43.771Z,76.00
2018-05-09T05:28:44.356Z,75.07
2018-05-09T05:29:44.916Z,75.37
2018-05-09T05:30:45.497Z,75.49
2018-05-09T05:31:46.053Z,73.86
2018-05-09T05:32:46.615Z,73.42
2018-05-09T05:33:47.178Z,73.03
2018-05-09T05:34:47.742Z,72.07
2018-05-09T05:35:48.307Z,72.26
2018-05-09T05:36:48.876Z,74.11
2018-05-09T05:37:49.440Z,75.23
2018-05-09T05:38:50.014Z,76.86
2018-05-09T05:39:50.568Z,77.00
2018-05-09T05:40:51.135Z,76.52
2018-05-09T05:41:51.701Z,76.17
2018-05-09T05:42:52.271Z,74.48
2018-05-09T05:43:52.836Z,72.17
2018-05-09T05:44:53.455Z,71.24
2018-05-09T05:45:53.971Z,70.56
2018-05-09T05:46:54.539Z,69.99
2018-05-09T05:47:55.105Z,70.28
2018-05-09T05:48:55.670Z,70.56
2018-05-09T05:49:56.235Z,70.43
2018-05-09T05:50:56.798Z,71.11
2018-05-09T05:51:57.367Z,71.69
2018-05-09T05:52:57.937Z,71.34
2018-05-09T05:53:58.504Z,70.18
2018-05-09T05:54:59.072Z,69.41
2018-05-09T05:55:59.677Z,70.09
2018-05-09T05:57:00.200Z,70.50
2018-05-09T05:58:00.774Z,70.09
2018-05-09T05:59:01.344Z,69.64
2018-05-09T06:00:01.920Z,67.85
2018-05-09T06:01:02.482Z,66.66
2018-05-09T06:02:03.050Z,66.08
2018-05-09T06:03:03.617Z,65.14
2018-05-09T06:04:04.189Z,64.40
2018-05-09T06:05:04.753Z,63.27
2018-05-09T06:06:05.328Z,61.72
2018-05-09T06:07:05.895Z,61.49
2018-05-09T06:08:06.475Z,60.62
2018-05-09T06:09:07.067Z,60.78
2018-05-09T06:10:07.639Z,60.98
2018-05-09T06:11:08.217Z,61.36
2018-05-09T06:12:08.775Z,61.49
2018-05-09T06:13:09.347Z,59.66
2018-05-09T06:14:09.915Z,58.88
2018-05-09T06:15:10.491Z,57.84
2018-05-09T06:16:11.059Z,58.04
2018-05-09T06:17:11.726Z,57.78
2018-05-09T06:18:12.216Z,56.93
2018-05-09T06:19:12.791Z,55.96
2018-05-09T06:20:13.369Z,55.44
2018-05-09T06:21:13.948Z,58.74
2018-05-09T06:22:14.513Z,59.26
2018-05-09T06:23:15.084Z,58.09
2018-05-09T06:24:15.752Z,58.09
2018-05-09T06:25:16.241Z,57.25
2018-05-09T06:26:16.814Z,56.96
2018-05-09T06:27:17.387Z,57.15
2018-05-09T06:28:17.961Z,57.64
2018-05-09T06:29:18.534Z,56.50
2018-05-09T06:30:19.100Z,55.85
2018-05-09T06:31:19.673Z,55.00
2018-05-09T06:32:20.241Z,54.42
2018-05-09T06:33:20.813Z,53.39
2018-05-09T06:34:21.387Z,55.07
2018-05-09T06:35:22.012Z,55.29
2018-05-09T06:36:22.532Z,54.52
2018-05-09T06:37:23.108Z,54.13
2018-05-09T06:38:23.686Z,53.93
2018-05-09T06:39:24.263Z,51.89
2018-05-09T06:40:24.828Z,49.46
2018-05-09T06:41:25.401Z,48.03
2018-05-09T06:42:25.980Z,48.34
2018-05-09T06:43:26.600Z,48.34
2018-05-09T06:44:27.148Z,48.75
2018-05-09T06:45:27.721Z,47.78
2018-05-09T06:46:28.293Z,47.71
2018-05-09T06:47:28.868Z,46.86
2018-05-09T06:48:29.447Z,46.20
2018-05-09T06:49:30.022Z,46.20
2018-05-09T06:50:30.590Z,46.02
2018-05-09T06:51:31.170Z,45.90
2018-05-09T06:52:31.745Z,46.41
2018-05-09T06:53:32.318Z,46.78
2018-05-09T06:54:32.897Z,46.37
2018-05-09T06:55:33.478Z,46.25
2018-05-09T06:56:34.047Z,46.73
2018-05-09T06:57:34.624Z,46.47
2018-05-09T06:58:35.197Z,46.88
2018-05-09T06:59:35.770Z,46.10
2018-05-09T07:00:36.348Z,46.00
2018-05-09T07:01:36.923Z,45.71
2018-05-09T07:02:37.491Z,46.12
2018-05-09T07:03:38.066Z,45.83
2018-05-09T07:04:38.643Z,45.85
2018-05-09T07:05:39.227Z,46.04
2018-05-09T07:06:40.175Z,45.95
2018-05-09T07:07:40.370Z,45.17
2018-05-09T07:08:40.943Z,45.65
2018-05-09T07:09:41.526Z,45.95
2018-05-09T07:10:42.098Z,46.14
2018-05-09T07:11:42.672Z,46.17
2018-05-09T07:12:43.349Z,46.36
2018-05-09T07:13:43.839Z,46.07
2018-05-09T07:14:44.419Z,45.78
2018-05-09T07:15:45.011Z,45.70
2018-05-09T07:16:45.595Z,44.53
2018-05-09T07:17:46.176Z,44.82
2018-05-09T07:18:46.749Z,44.94
2018-05-09T07:19:47.323Z,44.35
2018-05-09T07:20:47.896Z,44.74
2018-05-09T07:21:48.523Z,44.55
2018-05-09T07:22:49.098Z,44.92
2018-05-09T07:23:49.679Z,44.92
2018-05-09T07:24:50.256Z,44.82
2018-05-09T07:25:50.827Z,45.48
2018-05-09T07:26:51.405Z,45.46
2018-05-09T07:27:52.042Z,45.36
2018-05-09T07:28:52.583Z,45.17
2018-05-09T07:29:53.164Z,44.97
2018-05-09T07:30:53.735Z,44.37
2018-05-09T07:31:54.311Z,44.46
2018-05-09T07:32:54.898Z,43.98
2018-05-09T07:33:55.470Z,43.80
2018-05-09T07:34:56.041Z,43.29
2018-05-09T07:35:56.623Z,43.98
2018-05-09T07:36:57.201Z,44.37
2018-05-09T07:37:57.785Z,44.58
2018-05-09T07:38:58.369Z,45.09
2018-05-09T07:39:58.949Z,44.31
2018-05-09T07:40:59.545Z,44.51
2018-05-09T07:42:00.143Z,43.67
2018-05-09T07:43:00.727Z,43.59
2018-05-09T07:44:01.308Z,42.93
2018-05-09T07:45:01.893Z,42.85
2018-05-09T07:46:02.467Z,42.27
2018-05-09T07:47:03.054Z,42.05
2018-05-09T07:48:03.639Z,42.74
2018-05-09T07:49:04.215Z,42.36
2018-05-09T07:50:04.796Z,43.03
2018-05-09T07:51:05.368Z,43.24
2018-05-09T07:52:05.956Z,43.30
2018-05-09T07:53:06.544Z,43.65
2018-05-09T07:54:07.132Z,44.90
2018-05-09T07:55:07.948Z,45.65
2018-05-09T07:56:08.521Z,45.64
2018-05-09T07:57:09.110Z,46.20
2018-05-09T07:58:11.113Z,46.49
2018-05-09T07:59:11.697Z,46.76
2018-05-09T08:00:12.288Z,47.05
2018-05-09T08:01:12.873Z,47.80
2018-05-09T08:02:13.457Z,48.00
2018-05-09T08:03:14.047Z,47.05
2018-05-09T08:04:14.643Z,46.76
2018-05-09T08:05:15.230Z,45.90
2018-05-09T08:06:15.825Z,45.25
2018-05-09T08:07:16.414Z,44.48
2018-05-09T08:08:17.000Z,44.58
2018-05-09T08:09:17.570Z,44.29
2018-05-09T08:10:18.164Z,43.95
2018-05-09T08:11:18.998Z,43.77
2018-05-09T08:12:20.193Z,44.06
2018-05-09T08:13:20.787Z,43.57
2018-05-09T08:14:21.383Z,43.30
2018-05-09T08:15:21.958Z,43.20
2018-05-09T08:16:22.550Z,43.48
2018-05-09T08:17:23.138Z,43.87
2018-05-09T08:18:23.729Z,43.87
2018-05-09T08:19:24.322Z,43.59
2018-05-09T08:20:24.917Z,43.52
2018-05-09T08:21:25.501Z,43.01
2018-05-09T08:22:26.100Z,42.35
2018-05-09T08:23:26.673Z,42.44
2018-05-09T08:24:27.268Z,42.66
2018-05-09T08:25:27.870Z,42.35
2018-05-09T08:26:28.458Z,43.23
2018-05-09T08:27:29.047Z,42.46
2018-05-09T08:28:29.637Z,42.56
2018-05-09T08:29:30.226Z,42.68
2018-05-09T08:30:30.809Z,42.46
2018-05-09T08:31:31.400Z,42.48
2018-05-09T08:32:31.976Z,42.78
2018-05-09T08:33:32.569Z,42.95
2018-05-09T08:34:33.157Z,43.34
2018-05-09T08:35:33.748Z,42.56
2018-05-09T08:36:34.358Z,42.35
2018-05-09T08:37:34.940Z,42.35
2018-05-09T08:38:35.537Z,42.93
2018-05-09T08:39:36.126Z,43.40
2018-05-09T08:40:36.704Z,43.30
2018-05-09T08:41:37.425Z,42.74
2018-05-09T08:42:38.001Z,42.07
2018-05-09T08:43:38.695Z,41.70
2018-05-09T08:44:39.172Z,40.72
2018-05-09T08:45:39.754Z,41.11
2018-05-09T08:46:40.342Z,41.41
2018-05-09T08:47:41.057Z,41.33
2018-05-09T08:48:41.629Z,41.50
2018-05-09T08:49:42.219Z,42.09
2018-05-09T08:50:42.814Z,42.68
2018-05-09T08:51:43.393Z,42.27
2018-05-09T08:52:43.988Z,42.17
2018-05-09T08:53:44.567Z,41.49
2018-05-09T08:54:45.374Z,41.31
2018-05-09T08:55:45.965Z,41.52
2018-05-09T08:56:46.551Z,41.42
2018-05-09T08:57:47.134Z,41.42
2018-05-09T08:58:47.726Z,41.52
2018-05-09T08:59:48.323Z,41.64
2018-05-09T09:00:48.908Z,41.15
2018-05-09T09:01:49.498Z,40.58
2018-05-09T09:02:50.084Z,39.78
2018-05-09T09:03:50.669Z,39.00
2018-05-09T09:04:51.264Z,39.61
2018-05-09T09:05:51.856Z,39.39
2018-05-09T09:06:52.425Z,39.56
2018-05-09T09:07:53.017Z,39.98
2018-05-09T09:08:53.596Z,39.47
2018-05-09T09:09:54.172Z,39.39
2018-05-09T09:10:54.807Z,38.53
2018-05-09T09:11:55.359Z,38.43
2018-05-09T09:12:55.929Z,38.80
2018-05-09T09:13:56.511Z,39.31
2018-05-09T09:14:57.304Z,38.82
2018-05-09T09:15:57.891Z,38.92
2018-05-09T09:16:58.482Z,38.90
2018-05-09T09:17:59.070Z,39.09
2018-05-09T09:18:59.662Z,39.86
2018-05-09T09:20:00.253Z,39.96
2018-05-09T09:21:00.957Z,40.16
2018-05-09T09:22:01.761Z,40.16
2018-05-09T09:23:02.344Z,40.06
2018-05-09T09:24:02.932Z,41.62
2018-05-09T09:25:03.513Z,40.80
2018-05-09T09:26:04.091Z,41.36
2018-05-09T09:27:04.679Z,42.44
2018-05-09T09:28:05.262Z,42.35
2018-05-09T09:29:05.871Z,42.35
2018-05-09T09:30:06.442Z,42.50
2018-05-09T09:31:07.020Z,44.94
2018-05-09T09:32:07.594Z,43.28
2018-05-09T09:33:08.170Z,43.89
2018-05-09T09:34:08.766Z,43.40
2018-05-09T09:35:09.332Z,42.52
2018-05-09T09:36:09.971Z,43.32
2018-05-09T09:37:10.504Z,43.13
2018-05-09T09:38:11.334Z,43.01
2018-05-09T09:39:11.904Z,42.03
2018-05-09T09:40:12.486Z,42.52
2018-05-09T09:41:13.058Z,43.79
2018-05-09T09:42:13.638Z,42.79
2018-05-09T09:43:14.208Z,43.20
2018-05-09T09:44:14.793Z,42.91
2018-05-09T09:45:15.385Z,43.77
2018-05-09T09:46:15.965Z,43.67
2018-05-09T09:47:16.537Z,44.84
2018-05-09T09:48:17.118Z,45.02
2018-05-09T09:49:17.705Z,44.14
2018-05-09T09:50:18.489Z,43.36
2018-05-09T09:51:19.076Z,44.34
2018-05-09T09:52:19.658Z,43.85
2018-05-09T09:53:20.227Z,44.53
2018-05-09T09:54:20.820Z,44.34
2018-05-09T09:55:21.402Z,44.84
2018-05-09T09:56:21.980Z,43.48
2018-05-09T09:57:22.549Z,43.65
2018-05-09T09:58:23.133Z,43.77
2018-05-09T09:59:23.714Z,44.92
2018-05-09T10:00:24.310Z,43.73
2018-05-09T10:01:24.887Z,44.31
2018-05-09T10:02:25.455Z,44.02
2018-05-09T10:03:26.042Z,44.29
2018-05-09T10:04:26.630Z,44.60
2018-05-09T10:05:27.203Z,43.65
2018-05-09T10:06:27.780Z,44.24
2018-05-09T10:07:28.366Z,43.26
2018-05-09T10:08:28.950Z,43.77
2018-05-09T10:09:29.729Z,44.26
2018-05-09T10:10:30.526Z,42.97
2018-05-09T10:11:31.111Z,43.65
2018-05-09T10:12:31.706Z,44.94
2018-05-09T10:13:32.295Z,45.04
2018-05-09T10:14:32.867Z,44.87
2018-05-09T10:15:33.446Z,44.77
2018-05-09T10:16:34.032Z,45.06
2018-05-09T10:17:34.612Z,43.89
2018-05-09T10:18:35.198Z,43.20
2018-05-09T10:19:35.784Z,42.03
2018-05-09T10:20:36.373Z,41.83
2018-05-09T10:21:36.963Z,41.93
2018-05-09T10:22:37.541Z,42.42
2018-05-09T10:23:38.126Z,42.74
2018-05-09T10:24:38.720Z,43.62
2018-05-09T10:25:39.309Z,43.34
2018-05-09T10:26:39.902Z,42.46
2018-05-09T10:27:40.491Z,42.36
2018-05-09T10:28:41.065Z,41.09
2018-05-09T10:29:41.648Z,40.33
2018-05-09T10:30:42.229Z,40.64
2018-05-09T10:31:42.814Z,41.80
2018-05-09T10:32:43.406Z,43.09
2018-05-09T10:33:43.996Z,42.29
2018-05-09T10:34:44.580Z,43.34
2018-05-09T10:35:45.171Z,44.71
2018-05-09T10:36:45.766Z,42.36
2018-05-09T10:37:46.356Z,41.36
2018-05-09T10:38:46.942Z,42.07
2018-05-09T10:39:47.780Z,41.88
2018-05-09T10:40:48.323Z,41.60
2018-05-09T10:41:48.910Z,42.78
2018-05-09T10:42:49.502Z,43.68
2018-05-09T10:43:50.093Z,43.38
2018-05-09T10:44:50.670Z,40.94
2018-05-09T10:45:51.299Z,41.82
2018-05-09T10:46:51.876Z,41.42
2018-05-09T10:47:52.660Z,41.03
2018-05-09T10:48:53.236Z,41.82
2018-05-09T10:49:54.021Z,41.62
2018-05-09T10:50:54.959Z,41.13
2018-05-09T10:51:55.546Z,41.52
2018-05-09T10:52:56.119Z,41.52
2018-05-09T10:53:56.702Z,41.42
2018-05-09T10:54:57.283Z,39.96
2018-05-09T10:55:57.855Z,40.45
2018-05-09T10:56:58.437Z,40.86
2018-05-09T10:57:59.030Z,40.68
2018-05-09T10:58:59.620Z,39.51
2018-05-09T11:00:00.210Z,38.92
2018-05-09T11:01:00.800Z,38.45
2018-05-09T11:02:01.374Z,38.17
2018-05-09T11:03:01.964Z,38.37
2018-05-09T11:04:02.552Z,38.37
2018-05-09T11:05:03.167Z,37.88
2018-05-09T11:06:03.740Z,38.37
2018-05-09T11:07:04.335Z,38.50
2018-05-09T11:08:04.914Z,37.98
2018-05-09T11:09:05.552Z,39.62
2018-05-09T11:10:06.080Z,40.63
2018-05-09T11:11:06.861Z,40.03
2018-05-09T11:12:07.430Z,39.47
2018-05-09T11:13:08.003Z,39.47
2018-05-09T11:14:08.577Z,40.06
2018-05-09T11:15:09.155Z,38.37
2018-05-09T11:16:09.737Z,38.37
2018-05-09T11:17:10.310Z,37.70
2018-05-09T11:18:10.887Z,38.90
2018-05-09T11:19:11.462Z,38.09
2018-05-09T11:20:12.046Z,38.09
2018-05-09T11:21:12.631Z,38.58
2018-05-09T11:22:13.212Z,37.82
2018-05-09T11:23:13.788Z,36.93
2018-05-09T11:24:14.366Z,37.23
2018-05-09T11:25:14.949Z,36.46
2018-05-09T11:26:15.537Z,36.57
2018-05-09T11:27:16.117Z,35.36
2018-05-09T11:28:16.700Z,36.34
2018-05-09T11:29:17.268Z,37.99
2018-05-09T11:30:17.843Z,37.09
2018-05-09T11:31:18.420Z,36.51
2018-05-09T11:32:18.979Z,36.21
2018-05-09T11:33:19.551Z,36.62
2018-05-09T11:34:20.203Z,36.82
2018-05-09T11:35:20.708Z,37.62
2018-05-09T11:36:21.300Z,38.40
2018-05-09T11:37:21.952Z,36.83
2018-05-09T11:38:22.672Z,36.62
2018-05-09T11:39:23.252Z,35.91
2018-05-09T11:40:23.839Z,36.78
2018-05-09T11:41:24.425Z,38.04
2018-05-09T11:42:25.021Z,38.64
2018-05-09T11:43:25.590Z,38.43
2018-05-09T11:44:26.374Z,37.92
2018-05-09T11:45:26.947Z,38.41
2018-05-09T11:46:27.529Z,36.94
2018-05-09T11:47:28.125Z,36.86
2018-05-09T11:48:28.712Z,38.43
2018-05-09T11:49:29.280Z,37.07
2018-05-09T11:50:29.855Z,37.76
2018-05-09T11:51:30.431Z,38.35
2018-05-09T11:52:31.010Z,38.33
2018-05-09T11:53:31.581Z,37.94
2018-05-09T11:54:32.154Z,39.51
2018-05-09T11:55:32.732Z,38.62
2018-05-09T11:56:33.306Z,36.86
2018-05-09T11:57:33.885Z,36.78
2018-05-09T11:58:34.461Z,38.25
2018-05-09T11:59:35.036Z,37.76
2018-05-09T12:00:35.614Z,37.76
2018-05-09T12:01:36.191Z,36.70
2018-05-09T12:02:36.814Z,37.03
2018-05-09T12:03:37.337Z,36.46
2018-05-09T12:04:37.907Z,36.34
2018-05-09T12:05:38.481Z,35.16
2018-05-09T12:06:39.056Z,34.77
2018-05-09T12:07:39.634Z,34.51
2018-05-09T12:08:40.220Z,34.22
2018-05-09T12:09:40.790Z,34.33
2018-05-09T12:10:41.464Z,33.07
2018-05-09T12:11:41.936Z,32.79
2018-05-09T12:12:42.519Z,32.70
2018-05-09T12:13:43.108Z,33.20
2018-05-09T12:14:43.697Z,32.98
2018-05-09T12:15:44.288Z,32.98
2018-05-09T12:16:44.876Z,34.38
2018-05-09T12:17:45.465Z,33.54
2018-05-09T12:18:46.038Z,33.44
2018-05-09T12:19:46.622Z,33.44
2018-05-09T12:20:47.200Z,33.95
2018-05-09T12:21:47.781Z,31.77
2018-05-09T12:22:48.352Z,32.28
2018-05-09T12:23:48.941Z,33.26
2018-05-09T12:24:49.503Z,34.06
2018-05-09T12:25:50.090Z,32.79
2018-05-09T12:26:50.665Z,33.28
2018-05-09T12:27:51.241Z,32.98
2018-05-09T12:28:51.812Z,33.10
2018-05-09T12:32:23.310Z,32.32
2018-05-09T12:33:23.897Z,31.54
2018-05-09T12:34:24.490Z,31.75
2018-05-09T12:35:25.068Z,32.62
2018-05-09T12:36:25.649Z,33.11
2018-05-09T12:37:26.230Z,33.31
2018-05-09T12:38:26.832Z,34.00
2018-05-09T12:39:27.459Z,33.20
2018-05-09T12:40:28.050Z,33.48
2018-05-09T12:41:28.652Z,33.87
2018-05-09T12:42:29.268Z,33.39
2018-05-09T12:43:29.793Z,33.41
2018-05-09T12:44:30.374Z,32.31
2018-05-09T12:45:30.952Z,32.21
2018-05-09T12:46:31.543Z,32.32
2018-05-09T12:47:32.102Z,32.03
2018-05-09T12:48:32.710Z,32.03
2018-05-09T12:49:33.261Z,32.13
2018-05-09T12:50:33.852Z,32.04
2018-05-09T12:51:34.416Z,32.21
2018-05-09T12:52:34.990Z,33.67
2018-05-09T12:53:35.580Z,33.34
2018-05-09T12:54:36.164Z,32.74
2018-05-09T12:55:36.731Z,32.17
2018-05-09T12:56:37.330Z,32.18
2018-05-09T12:57:37.907Z,32.59
2018-05-09T12:58:38.478Z,33.10
2018-05-09T12:59:39.047Z,31.92
2018-05-09T13:00:39.616Z,32.01
2018-05-09T13:01:40.185Z,32.18
2018-05-09T13:02:40.773Z,32.76